Time;durP1;ratioP1;P1;durP2;ratioP2;P2;SDS_P1;SDS_P2;PMS_P1;PMS_P2;Temp;Humidity;BMP_temperature;BMP_pressure;BME280_temperature;BME280_humidity;BME280_pressure;Samples;Min_cycle;Max_cycle;Signal;HPM_P1;HPM_P2
2023/01/26 00:02:20;;;;;;;77.93;36.50;;;1.80;99.90;;;;;;5016340;28;20474;-56
2023/01/26 00:04:46;;;;;;;69.97;35.00;;;1.80;99.90;;;;;;5026366;28;20853;-56
2023/01/26 00:07:13;;;;;;;74.80;34.13;;;1.80;99.90;;;;;;5035945;28;20482;-55
2023/01/26 00:09:40;;;;;;;69.30;33.80;;;1.70;99.90;;;;;;5035714;28;21004;-55
2023/01/26 00:12:07;;;;;;;69.20;34.03;;;1.60;99.90;;;;;;5035920;28;20470;-56
2023/01/26 00:14:49;;;;;;;68.90;33.30;;;1.60;99.90;;;;;;5035883;28;20455;-56
2023/01/26 00:17:26;;;;;;;72.13;34.27;;;1.60;99.90;;;;;;5035919;28;20518;-56
2023/01/26 00:19:54;;;;;;;70.27;33.53;;;1.70;99.90;;;;;;5035766;28;20446;-55
2023/01/26 00:22:21;;;;;;;70.37;32.90;;;1.70;99.90;;;;;;5035440;28;21212;-56
2023/01/26 00:24:48;;;;;;;71.97;36.27;;;1.80;99.90;;;;;;5035004;28;20454;-56
2023/01/26 00:27:15;;;;;;;70.60;35.60;;;1.90;99.90;;;;;;5035597;28;20601;-56
2023/01/26 00:29:43;;;;;;;73.73;34.77;;;1.90;99.90;;;;;;5035704;28;20454;-56
2023/01/26 00:32:10;;;;;;;69.17;33.07;;;1.90;99.90;;;;;;5034315;28;20477;-56
2023/01/26 00:34:37;;;;;;;63.17;32.70;;;2.00;99.80;;;;;;5035223;28;20457;-55
2023/01/26 00:37:03;;;;;;;75.50;33.73;;;1.90;99.70;;;;;;5035202;28;20836;-55
2023/01/26 00:39:30;;;;;;;65.40;31.23;;;2.00;99.60;;;;;;5035679;28;20431;-58
2023/01/26 00:42:12;;;;;;;64.30;31.20;;;1.90;99.40;;;;;;5035423;28;20470;-56
2023/01/26 00:44:40;;;;;;;58.13;27.57;;;1.90;99.30;;;;;;5035076;28;20936;-56
2023/01/26 00:47:10;;;;;;;69.63;33.77;;;2.00;99.30;;;;;;5035253;28;20493;-56
2023/01/26 00:49:37;;;;;;;68.03;32.90;;;1.90;99.50;;;;;;5035643;28;20450;-56
2023/01/26 00:52:05;;;;;;;70.60;33.77;;;1.90;99.60;;;;;;5035241;28;20466;-55
2023/01/26 00:54:32;;;;;;;66.70;33.10;;;1.90;99.60;;;;;;5035119;28;20450;-56
2023/01/26 00:56:59;;;;;;;67.67;32.03;;;1.90;99.60;;;;;;5035219;28;20443;-55
2023/01/26 00:59:25;;;;;;;75.03;32.63;;;1.90;99.70;;;;;;5034763;28;20451;-55
2023/01/26 01:01:53;;;;;;;75.97;33.20;;;1.90;99.80;;;;;;5035275;28;20446;-56
2023/01/26 01:04:21;;;;;;;72.10;34.67;;;2.00;99.80;;;;;;5035052;28;20450;-56
2023/01/26 01:06:48;;;;;;;70.03;32.73;;;2.00;99.90;;;;;;5034809;28;20455;-56
2023/01/26 01:09:15;;;;;;;70.30;32.83;;;1.90;99.90;;;;;;5034926;28;20447;-55
2023/01/26 01:11:42;;;;;;;72.97;32.37;;;1.90;99.90;;;;;;5034857;28;20480;-56
2023/01/26 01:14:09;;;;;;;74.33;32.17;;;1.90;99.90;;;;;;5034862;28;20451;-56
2023/01/26 01:16:36;;;;;;;68.40;31.20;;;2.00;99.90;;;;;;5034766;28;20446;-55
2023/01/26 01:19:02;;;;;;;78.00;31.80;;;1.90;99.90;;;;;;5034698;28;20462;-56
2023/01/26 01:21:31;;;;;;;59.40;30.67;;;2.00;99.90;;;;;;5034408;28;20457;-56
2023/01/26 01:23:59;;;;;;;72.93;32.93;;;2.00;99.90;;;;;;5034703;28;20470;-56
2023/01/26 01:26:26;;;;;;;70.03;29.47;;;2.00;99.90;;;;;;5034756;28;20458;-56
2023/01/26 01:28:54;;;;;;;68.53;29.13;;;2.00;99.90;;;;;;5034446;28;20482;-56
2023/01/26 01:31:21;;;;;;;61.57;29.93;;;2.00;99.90;;;;;;5034497;28;21005;-56
2023/01/26 01:33:48;;;;;;;63.93;28.90;;;2.00;99.90;;;;;;5034453;28;20518;-56
2023/01/26 01:36:16;;;;;;;65.90;30.20;;;2.10;99.90;;;;;;5033400;28;20457;-55
2023/01/26 01:38:47;;;;;;;71.47;29.50;;;2.00;99.90;;;;;;5033998;28;20463;-55
2023/01/26 01:41:15;;;;;;;62.13;29.63;;;2.00;99.90;;;;;;5034363;28;20799;-55
2023/01/26 01:43:42;;;;;;;66.83;28.80;;;2.00;99.90;;;;;;5034265;28;20474;-56
2023/01/26 01:46:17;;;;;;;61.90;28.80;;;2.00;99.90;;;;;;5034267;28;20458;-56
2023/01/26 01:48:53;;;;;;;65.07;30.73;;;2.00;99.90;;;;;;5034245;28;20812;-56
2023/01/26 01:51:26;;;;;;;70.90;31.27;;;2.00;99.90;;;;;;5033006;28;20769;-55
2023/01/26 01:54:00;;;;;;;72.03;30.00;;;2.10;99.90;;;;;;5034115;28;20498;-55
2023/01/26 01:56:29;;;;;;;66.93;30.17;;;2.10;99.90;;;;;;5034265;28;20447;-55
2023/01/26 01:58:58;;;;;;;75.30;30.23;;;2.20;99.90;;;;;;5033700;28;20939;-55
2023/01/26 02:01:26;;;;;;;73.87;32.00;;;2.10;99.90;;;;;;5034021;28;20451;-57
2023/01/26 02:03:56;;;;;;;69.70;29.17;;;2.10;99.90;;;;;;5033575;28;20470;-56
2023/01/26 02:06:28;;;;;;;77.40;33.20;;;2.10;99.90;;;;;;5033617;28;20452;-55
2023/01/26 02:08:57;;;;;;;65.40;29.57;;;2.10;99.90;;;;;;5033872;28;20479;-55
2023/01/26 02:11:28;;;;;;;74.87;31.90;;;2.10;99.90;;;;;;5033920;28;20451;-56
2023/01/26 02:13:57;;;;;;;76.20;31.67;;;2.10;99.90;;;;;;5027037;28;20506;-56
2023/01/26 02:16:24;;;;;;;79.40;30.67;;;2.10;99.90;;;;;;5013988;28;20447;-57
2023/01/26 02:18:51;;;;;;;81.30;31.40;;;2.10;99.90;;;;;;5013878;28;20824;-56
2023/01/26 02:21:19;;;;;;;78.23;30.37;;;2.10;99.90;;;;;;5013882;28;20448;-56
2023/01/26 02:24:04;;;;;;;66.10;29.60;;;2.10;99.90;;;;;;5013878;28;20482;-56
2023/01/26 02:26:34;;;;;;;64.37;28.00;;;2.10;99.90;;;;;;5013916;28;20428;-55
2023/01/26 02:29:02;;;;;;;72.23;30.97;;;2.10;99.90;;;;;;5013841;28;20507;-56
2023/01/26 02:31:30;;;;;;;70.97;29.90;;;2.10;99.90;;;;;;5013757;28;20451;-55
2023/01/26 02:33:56;;;;;;;74.17;30.77;;;2.10;99.90;;;;;;5013724;28;20467;-56
2023/01/26 02:36:25;;;;;;;66.47;30.10;;;2.10;99.90;;;;;;5013726;28;20805;-55
2023/01/26 02:39:00;;;;;;;93.47;31.13;;;2.10;99.90;;;;;;5013321;28;20459;-55
2023/01/26 02:44:13;;;;;;;61.27;29.17;;;2.00;99.90;;;;;;5013582;28;20779;-55
2023/01/26 02:46:40;;;;;;;61.37;27.20;;;2.00;99.90;;;;;;5013324;28;20444;-55
2023/01/26 02:51:51;;;;;;;55.90;26.00;;;2.00;99.90;;;;;;5013388;28;20403;-55
2023/01/26 02:56:59;;;;;;;57.53;25.60;;;1.90;99.90;;;;;;5013005;28;20936;-56
2023/01/26 02:59:27;;;;;;;63.40;26.33;;;1.80;99.90;;;;;;5013444;28;20447;-56
2023/01/26 03:01:57;;;;;;;62.37;29.50;;;1.70;99.90;;;;;;5013480;28;20456;-56
2023/01/26 03:04:24;;;;;;;62.27;27.40;;;1.80;99.90;;;;;;5013508;28;20775;-56
2023/01/26 03:06:51;;;;;;;73.80;28.87;;;1.80;99.90;;;;;;5013487;28;20451;-56
2023/01/26 03:09:17;;;;;;;71.80;28.50;;;1.90;99.90;;;;;;5013280;28;20854;-56
2023/01/26 03:11:44;;;;;;;70.90;28.73;;;1.90;99.90;;;;;;5013390;28;20456;-57
2023/01/26 03:14:11;;;;;;;68.03;29.03;;;1.90;99.90;;;;;;5013401;28;20452;-56
2023/01/26 03:16:40;;;;;;;63.27;25.63;;;1.90;99.90;;;;;;5013358;28;20439;-57
2023/01/26 03:27:27;;;;;;;68.73;27.73;;;1.80;99.90;;;;;;5012991;28;20423;-56
2023/01/26 03:29:54;;;;;;;74.43;28.47;;;1.80;99.90;;;;;;5013346;28;20436;-56
2023/01/26 03:32:22;;;;;;;61.20;27.87;;;1.90;99.90;;;;;;5013178;28;20530;-56
2023/01/26 03:34:49;;;;;;;64.10;27.17;;;1.90;99.90;;;;;;5013373;28;20447;-56
2023/01/26 03:37:20;;;;;;;66.00;26.80;;;1.90;99.90;;;;;;5013211;28;20460;-56
2023/01/26 03:56:20;;;;;;;62.17;26.00;;;1.90;99.90;;;;;;5012925;28;20412;-56
2023/01/26 03:58:49;;;;;;;63.90;27.50;;;2.00;99.90;;;;;;5013426;28;20455;-56
2023/01/26 04:01:18;;;;;;;75.93;27.90;;;2.00;99.90;;;;;;5015240;28;20974;-55
2023/01/26 04:09:17;;;;;;;62.00;25.30;;;1.90;99.90;;;;;;5016687;28;20926;-56
2023/01/26 04:11:44;;;;;;;54.50;22.57;;;1.90;99.90;;;;;;5016310;28;20495;-57
2023/01/26 04:22:26;;;;;;;66.17;26.37;;;1.70;99.90;;;;;;5015875;28;20526;-55
2023/01/26 04:24:53;;;;;;;66.37;26.63;;;1.70;99.90;;;;;;5016090;28;20455;-56
2023/01/26 04:27:20;;;;;;;60.33;25.90;;;1.70;99.90;;;;;;5015985;28;20510;-56
2023/01/26 04:29:46;;;;;;;62.70;25.40;;;1.70;99.90;;;;;;5016107;28;20881;-56
2023/01/26 04:32:13;;;;;;;60.70;27.07;;;1.70;99.90;;;;;;5015890;28;20484;-55
2023/01/26 04:34:41;;;;;;;59.13;26.67;;;1.70;99.90;;;;;;5016168;28;20459;-55
2023/01/26 04:37:09;;;;;;;69.80;28.00;;;1.70;99.90;;;;;;5015904;28;20802;-55
2023/01/26 04:39:36;;;;;;;73.93;27.23;;;1.70;99.90;;;;;;5016124;28;20478;-56
2023/01/26 04:42:03;;;;;;;67.47;25.90;;;1.70;99.90;;;;;;5016297;28;20498;-56
2023/01/26 04:44:29;;;;;;;58.80;25.33;;;1.60;99.90;;;;;;5014708;28;20455;-56
2023/01/26 04:46:56;;;;;;;59.40;25.83;;;1.70;99.90;;;;;;5015610;28;20510;-56
2023/01/26 04:49:23;;;;;;;59.33;28.23;;;1.70;99.90;;;;;;5015769;28;20602;-56
2023/01/26 04:51:51;;;;;;;57.10;24.50;;;1.70;99.90;;;;;;5015544;28;20455;-57
2023/01/26 04:54:18;;;;;;;65.43;24.73;;;1.80;99.90;;;;;;5015921;28;20482;-56
2023/01/26 04:56:44;;;;;;;58.10;25.17;;;1.80;99.90;;;;;;5015614;28;20456;-55
2023/01/26 04:59:11;;;;;;;71.63;26.03;;;1.80;99.90;;;;;;5015569;28;20499;-55
2023/01/26 05:01:38;;;;;;;60.70;25.00;;;1.80;99.90;;;;;;5015617;28;20448;-57
2023/01/26 05:04:06;;;;;;;57.17;24.63;;;1.80;99.90;;;;;;5015631;28;20451;-56
2023/01/26 05:06:33;;;;;;;65.90;26.83;;;1.90;99.90;;;;;;5015986;28;20443;-56
2023/01/26 05:09:01;;;;;;;63.57;25.17;;;1.90;99.90;;;;;;5015956;28;21026;-55
2023/01/26 05:11:28;;;;;;;66.53;25.47;;;1.90;99.90;;;;;;5015291;28;20467;-55
2023/01/26 05:13:55;;;;;;;63.50;26.00;;;1.90;99.90;;;;;;5015288;28;20559;-56
2023/01/26 05:16:22;;;;;;;63.40;24.87;;;2.00;99.90;;;;;;5015825;28;20455;-56
2023/01/26 05:18:48;;;;;;;61.77;25.80;;;2.00;99.90;;;;;;5014515;28;20972;-56
2023/01/26 05:21:15;;;;;;;59.17;25.87;;;2.00;99.90;;;;;;5016464;28;20456;-55
2023/01/26 05:23:42;;;;;;;65.17;26.00;;;2.00;99.90;;;;;;5015496;28;20476;-56
2023/01/26 05:26:13;;;;;;;55.17;24.43;;;2.00;99.90;;;;;;5014890;28;20857;-56
2023/01/26 05:28:40;;;;;;;54.33;24.67;;;2.00;99.90;;;;;;5015124;28;20467;-56
2023/01/26 05:31:06;;;;;;;66.07;25.73;;;2.10;99.90;;;;;;5014757;28;20839;-55
2023/01/26 05:33:33;;;;;;;60.47;26.17;;;2.10;99.90;;;;;;5015095;28;20479;-56
2023/01/26 05:36:04;;;;;;;63.63;27.33;;;2.10;99.90;;;;;;5015188;28;20458;-56
2023/01/26 05:38:31;;;;;;;68.50;25.00;;;2.10;99.90;;;;;;5014813;28;20455;-56
2023/01/26 05:40:58;;;;;;;69.43;27.40;;;2.10;99.90;;;;;;5014864;28;20448;-56
2023/01/26 05:43:26;;;;;;;64.10;25.90;;;2.10;99.90;;;;;;5014758;28;20482;-56
2023/01/26 05:45:53;;;;;;;67.37;27.47;;;2.10;99.90;;;;;;5014982;28;20952;-55
2023/01/26 05:48:20;;;;;;;76.53;27.83;;;2.20;99.90;;;;;;5014446;28;20486;-55
2023/01/26 05:50:47;;;;;;;74.00;27.33;;;2.10;99.90;;;;;;5014418;28;20451;-56
2023/01/26 05:53:14;;;;;;;70.63;28.70;;;2.20;99.90;;;;;;5014650;28;20487;-56
2023/01/26 05:55:40;;;;;;;73.53;27.50;;;2.20;99.90;;;;;;5014206;28;20459;-56
2023/01/26 05:58:07;;;;;;;66.47;27.17;;;2.20;99.90;;;;;;5014319;28;20436;-56
2023/01/26 06:00:35;;;;;;;65.17;27.37;;;2.20;99.90;;;;;;5014570;28;20476;-56
2023/01/26 06:03:02;;;;;;;78.40;27.33;;;2.20;99.90;;;;;;5014035;28;20468;-55
2023/01/26 06:05:28;;;;;;;70.97;26.60;;;2.20;99.90;;;;;;5013915;28;20955;-55
2023/01/26 06:07:55;;;;;;;67.57;27.10;;;2.20;99.90;;;;;;5013954;28;20952;-56
2023/01/26 06:10:22;;;;;;;68.33;25.73;;;2.20;99.90;;;;;;5013734;28;20534;-57
2023/01/26 06:12:48;;;;;;;68.17;24.97;;;2.20;99.90;;;;;;5013957;28;20475;-55
2023/01/26 06:15:15;;;;;;;60.83;24.87;;;2.20;99.90;;;;;;5013981;28;20452;-55
2023/01/26 06:17:43;;;;;;;60.73;25.17;;;2.30;99.90;;;;;;5014037;28;20443;-56
2023/01/26 06:20:13;;;;;;;58.10;23.87;;;2.30;99.90;;;;;;5014074;28;20432;-55
2023/01/26 06:22:40;;;;;;;57.60;23.50;;;2.30;99.90;;;;;;5012849;28;20839;-56
2023/01/26 06:25:07;;;;;;;54.10;24.00;;;2.30;99.90;;;;;;5013919;28;20458;-55
2023/01/26 06:27:35;;;;;;;57.03;22.93;;;2.30;99.90;;;;;;5013908;28;20447;-55
2023/01/26 06:30:01;;;;;;;53.83;21.60;;;2.30;99.90;;;;;;5013790;28;20845;-55
2023/01/26 06:32:29;;;;;;;48.23;20.90;;;2.30;99.90;;;;;;5013586;28;20479;-56
2023/01/26 06:34:58;;;;;;;59.63;21.73;;;2.30;99.90;;;;;;5013734;28;20516;-56
2023/01/26 06:37:25;;;;;;;54.80;24.50;;;2.30;99.90;;;;;;5013351;28;20467;-56
2023/01/26 06:39:52;;;;;;;45.27;20.70;;;2.30;99.90;;;;;;5012529;28;20451;-55
2023/01/26 06:42:18;;;;;;;52.60;21.30;;;2.30;99.90;;;;;;5013881;28;20471;-56
2023/01/26 06:44:45;;;;;;;52.13;22.60;;;2.30;99.90;;;;;;5013318;28;20998;-56
2023/01/26 06:47:13;;;;;;;66.47;23.90;;;2.30;99.90;;;;;;5013683;28;20459;-55
2023/01/26 06:49:40;;;;;;;53.27;21.37;;;2.30;99.90;;;;;;5013531;28;20526;-55
2023/01/26 06:52:26;;;;;;;50.60;22.60;;;2.40;99.90;;;;;;5013208;28;21010;-56
2023/01/26 06:54:53;;;;;;;56.50;23.50;;;2.40;99.90;;;;;;5013636;28;20511;-56
2023/01/26 06:57:20;;;;;;;50.30;23.40;;;2.40;99.90;;;;;;5013519;28;20463;-56
2023/01/26 06:59:47;;;;;;;54.83;21.80;;;2.30;99.90;;;;;;5013526;28;20824;-56
2023/01/26 07:02:17;;;;;;;49.00;21.43;;;2.30;99.90;;;;;;5013541;28;20471;-56
2023/01/26 07:04:44;;;;;;;50.50;21.40;;;2.30;99.90;;;;;;5013013;28;20945;-56
2023/01/26 07:07:11;;;;;;;55.37;23.23;;;2.30;99.90;;;;;;5013458;28;20455;-56
2023/01/26 07:09:39;;;;;;;52.33;22.43;;;2.30;99.90;;;;;;5013366;28;20499;-56
2023/01/26 07:12:06;;;;;;;60.83;20.40;;;2.30;99.90;;;;;;5013034;28;20990;-55
2023/01/26 07:14:33;;;;;;;44.93;21.30;;;2.30;99.90;;;;;;5013308;28;20466;-56
2023/01/26 07:17:01;;;;;;;48.00;21.57;;;2.40;99.90;;;;;;5013126;28;20495;-55
2023/01/26 07:19:29;;;;;;;52.30;23.47;;;2.30;99.90;;;;;;5018918;28;20482;-56
2023/01/26 07:21:55;;;;;;;60.90;23.97;;;2.30;99.90;;;;;;5032643;28;20474;-56
2023/01/26 07:24:22;;;;;;;53.43;23.33;;;2.40;99.90;;;;;;5032894;28;20461;-57
2023/01/26 07:26:50;;;;;;;57.43;22.00;;;2.40;99.90;;;;;;5033025;28;20431;-56
2023/01/26 07:29:17;;;;;;;58.27;23.17;;;2.40;99.90;;;;;;5032941;28;20493;-55
2023/01/26 07:31:44;;;;;;;49.30;22.30;;;2.40;99.90;;;;;;5031744;28;20458;-55
2023/01/26 07:34:11;;;;;;;47.60;22.50;;;2.40;99.90;;;;;;5034947;28;20946;-55
2023/01/26 07:36:38;;;;;;;57.30;23.20;;;2.40;99.90;;;;;;5036711;28;20447;-55
2023/01/26 07:39:05;;;;;;;59.90;22.20;;;2.40;99.90;;;;;;5036436;28;20467;-55
2023/01/26 07:41:32;;;;;;;50.20;21.10;;;2.40;99.90;;;;;;5036558;28;20533;-56
2023/01/26 07:44:01;;;;;;;48.90;21.90;;;2.30;99.90;;;;;;5036167;28;20983;-56
2023/01/26 07:46:28;;;;;;;51.80;21.37;;;2.40;99.90;;;;;;5036796;28;20458;-55
2023/01/26 07:48:55;;;;;;;41.27;19.80;;;2.40;99.90;;;;;;5036521;28;20471;-56
2023/01/26 07:51:22;;;;;;;44.40;20.60;;;2.40;99.90;;;;;;5036728;28;20458;-57
2023/01/26 07:53:49;;;;;;;46.17;20.97;;;2.40;99.90;;;;;;5036379;28;20903;-56
2023/01/26 07:56:18;;;;;;;49.83;22.33;;;2.50;99.90;;;;;;5036664;28;20428;-56
2023/01/26 07:58:49;;;;;;;50.90;20.97;;;2.50;99.90;;;;;;5036282;28;20458;-56
2023/01/26 08:01:17;;;;;;;51.77;22.17;;;2.40;99.90;;;;;;5036225;28;20963;-56
2023/01/26 08:03:44;;;;;;;46.13;20.90;;;2.40;99.90;;;;;;5036276;28;20466;-56
2023/01/26 08:06:12;;;;;;;48.50;21.70;;;2.40;99.90;;;;;;5035902;28;20494;-55
2023/01/26 08:08:39;;;;;;;46.07;21.20;;;2.40;99.90;;;;;;5036105;28;20481;-56
2023/01/26 08:11:06;;;;;;;47.10;21.03;;;2.40;99.90;;;;;;5035374;28;20474;-55
2023/01/26 08:13:33;;;;;;;52.30;22.20;;;2.40;99.90;;;;;;5031670;28;20826;-55
2023/01/26 08:16:01;;;;;;;44.27;21.03;;;2.40;99.90;;;;;;5016231;28;20446;-56
2023/01/26 08:18:30;;;;;;;52.70;22.80;;;2.40;99.90;;;;;;5016107;28;20488;-56
2023/01/26 08:20:58;;;;;;;50.53;22.07;;;2.40;99.90;;;;;;5016162;28;20851;-55
2023/01/26 08:23:24;;;;;;;56.03;24.13;;;2.50;99.90;;;;;;5015606;28;20472;-56
2023/01/26 08:25:51;;;;;;;53.47;21.43;;;2.50;99.90;;;;;;5016037;28;20447;-56
2023/01/26 08:28:18;;;;;;;54.57;23.37;;;2.50;99.90;;;;;;5015987;28;20521;-55
2023/01/26 08:30:45;;;;;;;56.87;24.13;;;2.50;99.90;;;;;;5015876;28;20479;-56
2023/01/26 08:33:12;;;;;;;51.00;22.83;;;2.50;99.90;;;;;;5015412;28;20475;-56
2023/01/26 08:35:40;;;;;;;55.20;24.47;;;2.60;99.90;;;;;;5014420;28;20946;-56
2023/01/26 08:38:06;;;;;;;54.17;23.33;;;2.60;99.90;;;;;;5015646;28;20463;-55
2023/01/26 08:40:33;;;;;;;58.33;23.70;;;2.60;99.90;;;;;;5015698;28;20447;-58
2023/01/26 08:43:02;;;;;;;57.67;24.87;;;2.70;99.90;;;;;;5015581;28;20468;-56
2023/01/26 08:45:29;;;;;;;53.07;22.47;;;2.80;99.90;;;;;;5015445;28;20485;-56
2023/01/26 08:47:55;;;;;;;58.03;23.57;;;2.80;99.90;;;;;;5015640;28;20436;-56
2023/01/26 08:50:22;;;;;;;53.50;24.30;;;2.80;99.90;;;;;;5015440;28;20483;-56
2023/01/26 08:52:51;;;;;;;55.10;22.70;;;2.90;99.90;;;;;;5015480;28;20478;-56
2023/01/26 08:55:17;;;;;;;55.93;25.53;;;2.90;99.90;;;;;;5015463;28;20468;-56
2023/01/26 08:57:45;;;;;;;54.63;25.20;;;2.80;99.90;;;;;;5015492;28;20437;-56
2023/01/26 09:00:14;;;;;;;54.87;24.30;;;2.90;99.90;;;;;;5015301;28;20458;-56
2023/01/26 09:02:40;;;;;;;55.07;24.30;;;2.90;99.90;;;;;;5015282;28;20471;-56
2023/01/26 09:05:09;;;;;;;64.53;27.77;;;2.90;99.90;;;;;;5015190;28;20437;-56
2023/01/26 09:07:36;;;;;;;56.00;25.17;;;3.00;99.90;;;;;;5015224;28;20529;-55
2023/01/26 09:10:07;;;;;;;62.63;26.43;;;3.00;99.90;;;;;;5015170;28;20493;-56
2023/01/26 09:12:33;;;;;;;61.33;25.13;;;3.00;99.90;;;;;;5014926;28;20823;-57
2023/01/26 09:15:03;;;;;;;65.43;25.77;;;3.00;99.90;;;;;;5015021;28;20451;-56
2023/01/26 09:17:30;;;;;;;59.63;27.60;;;3.00;99.90;;;;;;5015293;28;20449;-56
2023/01/26 09:19:57;;;;;;;56.93;24.43;;;3.00;99.90;;;;;;5015022;28;20455;-55
2023/01/26 09:22:24;;;;;;;62.53;26.97;;;3.00;99.90;;;;;;5014841;28;20582;-56
2023/01/26 09:24:51;;;;;;;56.97;25.50;;;2.90;99.90;;;;;;5014593;28;20451;-55
2023/01/26 09:27:19;;;;;;;57.70;24.93;;;2.90;99.90;;;;;;5014951;28;20850;-56
2023/01/26 09:29:46;;;;;;;67.23;29.20;;;2.90;99.90;;;;;;5014737;28;20494;-55
2023/01/26 09:32:13;;;;;;;57.50;25.27;;;2.80;99.90;;;;;;5014408;28;20536;-55
2023/01/26 09:34:41;;;;;;;64.00;27.80;;;2.80;99.90;;;;;;5014391;28;20455;-55
2023/01/26 09:37:08;;;;;;;66.60;27.27;;;2.90;99.90;;;;;;5014611;28;20477;-55
2023/01/26 09:39:37;;;;;;;51.20;24.20;;;2.90;99.90;;;;;;5015234;28;20425;-55
2023/01/26 09:42:34;;;;;;;65.53;26.10;;;2.90;99.90;;;;;;5014565;28;20567;-56
2023/01/26 09:45:16;;;;;;;57.13;25.60;;;3.00;99.90;;;;;;5014553;28;20434;-55
2023/01/26 09:47:58;;;;;;;57.47;24.60;;;3.00;99.90;;;;;;5014308;28;20925;-55
2023/01/26 09:50:30;;;;;;;53.77;24.27;;;3.00;99.90;;;;;;5014960;28;20472;-55
2023/01/26 09:53:01;;;;;;;53.10;24.07;;;3.00;99.90;;;;;;5014308;28;20486;-55
2023/01/26 09:55:30;;;;;;;61.70;26.00;;;3.00;99.90;;;;;;5014481;28;20530;-54
2023/01/26 09:58:02;;;;;;;49.33;23.30;;;3.00;99.90;;;;;;5013443;28;20643;-54
2023/01/26 10:00:32;;;;;;;51.70;24.13;;;3.00;99.90;;;;;;5014010;28;20797;-54
2023/01/26 10:03:11;;;;;;;53.47;23.70;;;2.90;99.90;;;;;;5014232;28;20474;-54
2023/01/26 10:05:44;;;;;;;51.43;23.63;;;3.00;99.90;;;;;;5014330;28;20440;-54
2023/01/26 10:08:12;;;;;;;47.70;21.80;;;3.00;99.90;;;;;;5014779;28;20457;-54
2023/01/26 10:10:44;;;;;;;52.30;22.70;;;3.00;99.90;;;;;;5013953;28;20520;-54
2023/01/26 10:13:15;;;;;;;47.53;21.93;;;3.10;99.90;;;;;;5014000;28;20479;-54
2023/01/26 10:15:44;;;;;;;43.87;21.83;;;3.10;99.90;;;;;;5014051;28;20441;-54
2023/01/26 10:18:16;;;;;;;50.33;24.07;;;3.10;99.90;;;;;;5014072;28;20448;-54
2023/01/26 10:20:47;;;;;;;50.27;22.57;;;3.10;99.90;;;;;;5014113;28;20815;-53
2023/01/26 10:23:17;;;;;;;49.10;22.70;;;3.20;99.90;;;;;;5013423;28;21002;-57
2023/01/26 10:25:46;;;;;;;50.03;21.90;;;3.20;99.90;;;;;;5033086;28;20921;-53
2023/01/26 10:28:17;;;;;;;49.57;22.20;;;3.10;99.90;;;;;;5033563;28;20899;-52
2023/01/26 10:30:46;;;;;;;48.33;23.10;;;3.20;99.90;;;;;;5033360;28;20996;-53
2023/01/26 10:33:19;;;;;;;53.43;22.10;;;3.10;99.90;;;;;;5033669;28;20476;-54
2023/01/26 10:35:46;;;;;;;52.50;23.27;;;3.20;99.90;;;;;;5033564;28;20450;-53
2023/01/26 10:38:39;;;;;;;47.13;21.40;;;3.20;99.90;;;;;;5033434;28;20551;-54
2023/01/26 10:41:20;;;;;;;46.37;20.30;;;3.20;99.90;;;;;;5033236;28;20920;-53
2023/01/26 10:43:53;;;;;;;47.67;24.20;;;3.20;99.90;;;;;;5033365;28;20472;-53
2023/01/26 10:46:30;;;;;;;53.33;23.70;;;3.20;99.90;;;;;;5033435;28;20454;-53
2023/01/26 10:48:59;;;;;;;45.80;21.00;;;3.20;99.90;;;;;;5033403;28;20441;-54
2023/01/26 10:51:29;;;;;;;47.07;22.80;;;3.30;99.90;;;;;;5032959;28;21005;-54
2023/01/26 10:54:23;;;;;;;51.43;21.97;;;3.30;99.90;;;;;;5033223;28;20506;-54
2023/01/26 10:56:53;;;;;;;51.43;23.20;;;3.30;99.90;;;;;;5033483;28;20438;-54
2023/01/26 10:59:27;;;;;;;42.00;22.30;;;3.30;99.90;;;;;;5033056;28;20444;-53
2023/01/26 11:01:57;;;;;;;43.40;22.20;;;3.30;99.90;;;;;;5033340;28;20433;-54
2023/01/26 11:04:25;;;;;;;40.17;19.23;;;3.30;99.90;;;;;;5033262;28;20463;-53
2023/01/26 11:06:51;;;;;;;39.80;19.47;;;3.30;99.90;;;;;;5033511;28;20440;-53
2023/01/26 11:09:20;;;;;;;34.03;18.63;;;3.30;99.90;;;;;;5036212;28;20452;-53
2023/01/26 11:12:05;;;;;;;37.17;18.23;;;3.30;99.90;;;;;;5037048;28;20478;-54
2023/01/26 11:14:33;;;;;;;33.80;18.63;;;3.30;99.90;;;;;;5025473;28;20471;-53
2023/01/26 11:17:13;;;;;;;40.67;19.27;;;3.40;99.90;;;;;;5017272;28;20433;-53
2023/01/26 11:19:57;;;;;;;40.73;18.40;;;3.40;99.90;;;;;;5017092;28;20908;-53
2023/01/26 11:22:28;;;;;;;33.50;16.47;;;3.50;99.90;;;;;;5016922;28;20986;-53
2023/01/26 11:25:05;;;;;;;29.00;13.30;;;3.50;99.90;;;;;;5017408;28;20423;-53
2023/01/26 11:27:44;;;;;;;29.57;15.00;;;3.40;99.90;;;;;;5017345;28;20571;-54
2023/01/26 11:30:41;;;;;;;26.63;14.10;;;3.40;99.90;;;;;;5017226;28;20486;-53
2023/01/26 11:33:16;;;;;;;26.03;13.57;;;3.40;99.90;;;;;;5017224;28;20592;-53
2023/01/26 11:35:51;;;;;;;30.37;15.80;;;3.40;99.90;;;;;;5017097;28;20490;-55
2023/01/26 11:38:36;;;;;;;26.57;14.40;;;3.40;99.90;;;;;;5016979;28;20466;-54
2023/01/26 11:41:26;;;;;;;28.20;13.80;;;3.50;99.90;;;;;;5017215;28;20514;-54
2023/01/26 11:44:06;;;;;;;24.37;13.50;;;3.40;99.90;;;;;;5017088;28;20482;-54
2023/01/26 11:47:04;;;;;;;26.43;13.63;;;3.50;99.90;;;;;;5017200;28;20463;-54
2023/01/26 11:49:53;;;;;;;27.40;13.70;;;3.50;99.90;;;;;;5015512;28;20443;-54
2023/01/26 11:52:27;;;;;;;22.13;12.40;;;3.60;99.90;;;;;;5017065;28;20469;-54
2023/01/26 11:55:05;;;;;;;19.10;10.80;;;3.60;99.90;;;;;;5017849;28;20482;-55
2023/01/26 11:57:42;;;;;;;18.63;10.60;;;3.60;99.90;;;;;;5018541;28;20441;-55
2023/01/26 12:00:15;;;;;;;20.40;11.50;;;3.60;99.90;;;;;;5017538;28;20432;-54
2023/01/26 12:02:47;;;;;;;14.53;9.23;;;3.70;99.90;;;;;;5016515;28;20496;-54
2023/01/26 12:05:18;;;;;;;13.57;8.20;;;3.80;99.90;;;;;;5017092;28;20431;-54
2023/01/26 12:07:53;;;;;;;16.23;9.70;;;3.90;99.90;;;;;;5016880;28;20885;-54
2023/01/26 12:10:23;;;;;;;14.43;9.23;;;4.00;99.90;;;;;;5016615;28;20835;-54
2023/01/26 12:12:55;;;;;;;14.97;9.83;;;4.00;99.90;;;;;;5017255;28;20502;-54
2023/01/26 12:15:28;;;;;;;17.13;10.30;;;4.00;99.90;;;;;;5016406;28;20459;-54
2023/01/26 12:17:59;;;;;;;15.83;9.77;;;4.10;99.90;;;;;;5016227;28;20906;-55
2023/01/26 12:20:31;;;;;;;15.77;9.30;;;4.10;99.90;;;;;;5014870;28;20930;-54
2023/01/26 12:23:03;;;;;;;13.00;8.37;;;4.20;99.90;;;;;;5015982;28;20481;-54
2023/01/26 12:25:33;;;;;;;13.73;8.63;;;4.20;99.90;;;;;;5016128;28;20436;-54
2023/01/26 12:28:08;;;;;;;13.40;8.20;;;4.30;99.90;;;;;;5015906;28;20534;-56
2023/01/26 12:30:41;;;;;;;13.53;8.77;;;4.30;99.90;;;;;;5015947;28;20488;-54
2023/01/26 12:33:11;;;;;;;16.80;9.20;;;4.40;99.90;;;;;;5015607;28;20997;-54
2023/01/26 12:35:59;;;;;;;13.60;8.50;;;4.40;99.90;;;;;;5015939;28;20866;-54
2023/01/26 12:38:40;;;;;;;11.10;7.87;;;4.30;99.90;;;;;;5015663;28;20510;-55
2023/01/26 12:41:13;;;;;;;12.17;7.20;;;4.30;99.90;;;;;;5015483;28;20838;-54
2023/01/26 12:43:55;;;;;;;10.37;7.37;;;4.30;99.90;;;;;;5015627;28;20474;-55
2023/01/26 12:46:24;;;;;;;9.73;7.00;;;4.30;99.90;;;;;;5015877;28;20451;-55
2023/01/26 12:48:57;;;;;;;10.57;7.70;;;4.40;99.90;;;;;;5015344;28;20966;-55
2023/01/26 12:51:29;;;;;;;12.00;7.33;;;4.40;99.90;;;;;;5015495;28;20468;-55
2023/01/26 12:54:00;;;;;;;12.93;7.50;;;4.40;99.90;;;;;;5015163;28;20992;-55
2023/01/26 12:56:32;;;;;;;15.57;7.67;;;4.40;99.90;;;;;;5015541;28;20449;-55
2023/01/26 12:59:00;;;;;;;10.77;6.90;;;4.50;99.90;;;;;;5015427;28;20449;-56
2023/01/26 13:01:38;;;;;;;13.57;8.20;;;4.50;99.90;;;;;;5016200;28;20447;-55
2023/01/26 13:04:09;;;;;;;11.70;7.80;;;4.50;99.90;;;;;;5016182;28;20433;-55
2023/01/26 13:06:36;;;;;;;9.83;7.50;;;4.50;99.90;;;;;;5015094;28;20436;-56
2023/01/26 13:09:17;;;;;;;9.03;6.90;;;4.50;99.90;;;;;;5015255;28;20457;-56
2023/01/26 13:11:49;;;;;;;12.60;7.97;;;4.50;99.90;;;;;;5015070;28;20472;-57
2023/01/26 13:14:29;;;;;;;9.67;6.63;;;4.50;99.90;;;;;;5015143;28;20446;-56
2023/01/26 13:16:56;;;;;;;13.80;8.63;;;4.40;99.90;;;;;;5015127;28;20857;-55
2023/01/26 13:19:51;;;;;;;12.90;7.47;;;4.40;99.90;;;;;;5015060;28;20453;-55
2023/01/26 13:22:40;;;;;;;14.07;8.10;;;4.30;99.90;;;;;;5014998;28;20514;-55
2023/01/26 13:25:16;;;;;;;9.37;6.67;;;4.30;99.90;;;;;;5014973;28;20451;-55
2023/01/26 13:27:46;;;;;;;9.00;6.50;;;4.40;99.90;;;;;;5014932;28;20450;-55
2023/01/26 13:30:34;;;;;;;10.70;8.00;;;4.40;99.90;;;;;;5014522;28;20536;-55
2023/01/26 13:33:21;;;;;;;8.30;6.30;;;4.40;99.90;;;;;;5014783;28;20605;-55
2023/01/26 13:35:51;;;;;;;9.17;6.17;;;4.30;99.90;;;;;;5014691;28;20529;-55
2023/01/26 13:38:24;;;;;;;9.10;6.37;;;4.30;99.90;;;;;;5014577;28;20463;-55
2023/01/26 13:40:51;;;;;;;8.73;6.50;;;4.30;99.90;;;;;;5014933;28;20430;-55